Fort Smith Airport
CYSM : now visible

Airfield :











YOU CAN JOIN US ON...

 
LOGIN :

Register | Disclaimer

   EN    FR    IT 

 









Legend :    VFR   Marginal VFR   IFR   Intensive IFR   Very Intensive IFR
Visi :
Ceiling :
>= 8 km
>= 3000ft
5 to 8 km
1000 to 3000 ft
1500m to 5 km
500 to 1000 ft
800 to 1500m
200 to 500 ft
< 800m
< 200 ft
Symbols :   Thunderstorms  Fog  Heavy snow  Heavy precipitations  Wind > 20 kt







- Airport Elevation : 671 ft
- IATA code : YSM


CYSM - Fort Smith

CURRENT METAR :
  • 201000Z 16004KT 15SM FEW068 BKN160 10/08 A2954 RMK AC2AC5 SLP011 DENSITY ALT 700FT

EXPIRED METARs :
  • 200900Z 16004KT 15SM BKN160 10/08 A2955 RMK AC7 SLP013 DENSITY ALT 700FT
  • 200800Z 18005KT 15SM BKN160 11/08 A2954 RMK AC7 SLP010 DENSITY ALT 900FT
  • 200739Z 17005KT 15SM OVC140 12/09 A2954 RMK AC8 SLP010 DENSITY ALT 900FT

TAF TAF CYSM
Valid from the 20 at 06:00 until the 20 at 18:00 UTC


200538Z 2006/2018 18005KT P6SM -RA BKN050 OVC120
TEMPO 2006/2009 P6SM -SHRA SCT020 BKN050 OVC080
FM200900 17005KT P6SM -SHRA SCT015 BKN030 OVC050
TEMPO 2009/2016 P6SM NSW BKN015 OVC030
FM201600 30010KT P6SM BKN020
TEMPO 2016/2018 BKN025 RMK NXT FCST BY 201200Z
No reported NOTAMs for that airfield.



MET'MAP, your aeronautical weather chart ! - Copyright ORBIFLY December 2007 - Disclaimer

ORBIFLY MET'MAP TEAM :

Programming & Development : Alexandra Zaïnal
Concept & Development : Baudouin d'Aumeries
Co-Development & Prog : Marc-Olivier Méhu
Technical & hardware support : Manuel Goepfert

Contact : metmap@orbifly.com




SOURCES & CREDITS :

   NOAA       Earth
Advisory